sensor_id;sensor_type;location;lat;lon;timestamp;P1;durP1;ratioP1;P2;durP2;ratioP2
16862;SDS011;52193;48.216;-1.698;2023-04-15T00:00:35;3.42;;;2.30;;
16862;SDS011;52193;48.216;-1.698;2023-04-15T00:03:02;3.40;;;2.33;;
16862;SDS011;52193;48.216;-1.698;2023-04-15T00:05:31;3.17;;;2.60;;
16862;SDS011;52193;48.216;-1.698;2023-04-15T00:07:58;6.07;;;2.63;;
16862;SDS011;52193;48.216;-1.698;2023-04-15T00:10:26;3.95;;;2.35;;
16862;SDS011;52193;48.216;-1.698;2023-04-15T00:12:53;2.88;;;2.15;;
16862;SDS011;52193;48.216;-1.698;2023-04-15T00:15:20;3.72;;;2.58;;
16862;SDS011;52193;48.216;-1.698;2023-04-15T00:17:48;2.60;;;2.10;;
16862;SDS011;52193;48.216;-1.698;2023-04-15T00:20:16;4.30;;;2.45;;
16862;SDS011;52193;48.216;-1.698;2023-04-15T00:22:44;4.25;;;2.42;;
16862;SDS011;52193;48.216;-1.698;2023-04-15T00:25:11;2.50;;;2.10;;
16862;SDS011;52193;48.216;-1.698;2023-04-15T00:27:39;2.80;;;2.20;;
16862;SDS011;52193;48.216;-1.698;2023-04-15T00:30:06;3.95;;;2.35;;
16862;SDS011;52193;48.216;-1.698;2023-04-15T00:32:33;3.15;;;2.47;;
16862;SDS011;52193;48.216;-1.698;2023-04-15T00:35:00;3.40;;;2.20;;
16862;SDS011;52193;48.216;-1.698;2023-04-15T00:37:28;3.90;;;2.42;;
16862;SDS011;52193;48.216;-1.698;2023-04-15T00:39:56;3.40;;;2.17;;
16862;SDS011;52193;48.216;-1.698;2023-04-15T00:42:23;4.07;;;2.55;;
16862;SDS011;52193;48.216;-1.698;2023-04-15T00:44:50;2.38;;;1.90;;
16862;SDS011;52193;48.216;-1.698;2023-04-15T00:47:17;3.47;;;2.10;;
16862;SDS011;52193;48.216;-1.698;2023-04-15T00:49:45;3.95;;;2.30;;
16862;SDS011;52193;48.216;-1.698;2023-04-15T00:52:12;3.78;;;2.22;;
16862;SDS011;52193;48.216;-1.698;2023-04-15T00:54:39;3.00;;;2.05;;
16862;SDS011;52193;48.216;-1.698;2023-04-15T00:57:07;3.42;;;2.40;;
16862;SDS011;52193;48.216;-1.698;2023-04-15T00:59:34;3.42;;;2.33;;
16862;SDS011;52193;48.216;-1.698;2023-04-15T01:02:01;4.28;;;2.50;;
16862;SDS011;52193;48.216;-1.698;2023-04-15T01:04:28;5.00;;;2.83;;
16862;SDS011;52193;48.216;-1.698;2023-04-15T01:06:55;3.38;;;2.40;;
16862;SDS011;52193;48.216;-1.698;2023-04-15T01:09:22;3.22;;;2.10;;
16862;SDS011;52193;48.216;-1.698;2023-04-15T01:11:49;5.10;;;2.47;;
16862;SDS011;52193;48.216;-1.698;2023-04-15T01:14:18;2.50;;;2.30;;
16862;SDS011;52193;48.216;-1.698;2023-04-15T01:16:45;5.97;;;2.17;;
16862;SDS011;52193;48.216;-1.698;2023-04-15T01:19:12;3.00;;;1.95;;
16862;SDS011;52193;48.216;-1.698;2023-04-15T01:21:42;3.75;;;2.13;;
16862;SDS011;52193;48.216;-1.698;2023-04-15T01:24:09;3.38;;;2.30;;
16862;SDS011;52193;48.216;-1.698;2023-04-15T01:26:38;4.63;;;2.55;;
16862;SDS011;52193;48.216;-1.698;2023-04-15T01:29:05;2.60;;;1.90;;
16862;SDS011;52193;48.216;-1.698;2023-04-15T01:31:32;4.10;;;2.03;;
16862;SDS011;52193;48.216;-1.698;2023-04-15T01:34:00;3.53;;;2.20;;
16862;SDS011;52193;48.216;-1.698;2023-04-15T01:36:27;3.40;;;1.90;;
16862;SDS011;52193;48.216;-1.698;2023-04-15T01:38:54;2.63;;;2.00;;
16862;SDS011;52193;48.216;-1.698;2023-04-15T01:41:24;3.95;;;1.92;;
16862;SDS011;52193;48.216;-1.698;2023-04-15T01:43:53;3.47;;;1.90;;
16862;SDS011;52193;48.216;-1.698;2023-04-15T01:46:21;3.13;;;2.08;;
16862;SDS011;52193;48.216;-1.698;2023-04-15T01:48:48;4.10;;;2.20;;
16862;SDS011;52193;48.216;-1.698;2023-04-15T01:51:15;3.47;;;1.80;;
16862;SDS011;52193;48.216;-1.698;2023-04-15T01:53:42;2.08;;;1.50;;
16862;SDS011;52193;48.216;-1.698;2023-04-15T01:56:09;1.85;;;1.65;;
16862;SDS011;52193;48.216;-1.698;2023-04-15T01:58:36;3.22;;;2.05;;
16862;SDS011;52193;48.216;-1.698;2023-04-15T02:01:05;2.72;;;1.90;;
16862;SDS011;52193;48.216;-1.698;2023-04-15T02:03:34;2.85;;;1.70;;
16862;SDS011;52193;48.216;-1.698;2023-04-15T02:06:01;3.58;;;1.92;;
16862;SDS011;52193;48.216;-1.698;2023-04-15T02:08:28;3.05;;;1.83;;
16862;SDS011;52193;48.216;-1.698;2023-04-15T02:10:55;3.03;;;1.90;;
16862;SDS011;52193;48.216;-1.698;2023-04-15T02:13:22;3.13;;;1.65;;
16862;SDS011;52193;48.216;-1.698;2023-04-15T02:15:49;3.33;;;1.98;;
16862;SDS011;52193;48.216;-1.698;2023-04-15T02:18:17;3.45;;;2.08;;
16862;SDS011;52193;48.216;-1.698;2023-04-15T02:20:44;2.97;;;1.70;;
16862;SDS011;52193;48.216;-1.698;2023-04-15T02:23:12;3.90;;;1.98;;
16862;SDS011;52193;48.216;-1.698;2023-04-15T02:25:39;2.80;;;2.03;;
16862;SDS011;52193;48.216;-1.698;2023-04-15T02:28:06;2.83;;;1.80;;
16862;SDS011;52193;48.216;-1.698;2023-04-15T02:30:33;3.25;;;1.90;;
16862;SDS011;52193;48.216;-1.698;2023-04-15T02:33:00;3.97;;;2.03;;
16862;SDS011;52193;48.216;-1.698;2023-04-15T02:35:29;2.55;;;1.75;;
16862;SDS011;52193;48.216;-1.698;2023-04-15T02:37:56;2.60;;;1.80;;
16862;SDS011;52193;48.216;-1.698;2023-04-15T02:40:23;5.13;;;2.05;;
16862;SDS011;52193;48.216;-1.698;2023-04-15T02:42:50;3.08;;;1.90;;
16862;SDS011;52193;48.216;-1.698;2023-04-15T02:45:17;2.72;;;1.67;;
16862;SDS011;52193;48.216;-1.698;2023-04-15T02:47:47;4.05;;;2.00;;
16862;SDS011;52193;48.216;-1.698;2023-04-15T02:50:14;5.97;;;2.30;;
16862;SDS011;52193;48.216;-1.698;2023-04-15T02:52:43;4.03;;;2.10;;
16862;SDS011;52193;48.216;-1.698;2023-04-15T02:55:10;2.65;;;1.80;;
16862;SDS011;52193;48.216;-1.698;2023-04-15T02:57:37;5.80;;;1.92;;
16862;SDS011;52193;48.216;-1.698;2023-04-15T03:00:05;3.28;;;1.80;;
16862;SDS011;52193;48.216;-1.698;2023-04-15T03:02:35;3.10;;;1.98;;
16862;SDS011;52193;48.216;-1.698;2023-04-15T03:05:03;2.35;;;1.70;;
16862;SDS011;52193;48.216;-1.698;2023-04-15T03:07:31;4.40;;;2.10;;
16862;SDS011;52193;48.216;-1.698;2023-04-15T03:09:59;4.32;;;2.20;;
16862;SDS011;52193;48.216;-1.698;2023-04-15T03:12:26;4.00;;;1.92;;
16862;SDS011;52193;48.216;-1.698;2023-04-15T03:14:54;2.88;;;1.80;;
16862;SDS011;52193;48.216;-1.698;2023-04-15T03:17:21;3.58;;;2.00;;
16862;SDS011;52193;48.216;-1.698;2023-04-15T03:19:48;2.78;;;1.83;;
16862;SDS011;52193;48.216;-1.698;2023-04-15T03:22:15;3.42;;;2.22;;
16862;SDS011;52193;48.216;-1.698;2023-04-15T03:24:41;3.45;;;2.05;;
16862;SDS011;52193;48.216;-1.698;2023-04-15T03:27:10;4.75;;;2.03;;
16862;SDS011;52193;48.216;-1.698;2023-04-15T03:29:37;4.63;;;2.30;;
16862;SDS011;52193;48.216;-1.698;2023-04-15T03:32:04;3.03;;;1.90;;
16862;SDS011;52193;48.216;-1.698;2023-04-15T03:34:31;2.53;;;1.80;;
16862;SDS011;52193;48.216;-1.698;2023-04-15T03:36:58;5.10;;;2.10;;
16862;SDS011;52193;48.216;-1.698;2023-04-15T03:39:25;4.40;;;2.55;;
16862;SDS011;52193;48.216;-1.698;2023-04-15T03:41:52;4.35;;;2.10;;
16862;SDS011;52193;48.216;-1.698;2023-04-15T03:44:20;4.10;;;2.25;;
16862;SDS011;52193;48.216;-1.698;2023-04-15T03:46:47;3.90;;;2.35;;
16862;SDS011;52193;48.216;-1.698;2023-04-15T03:49:14;2.70;;;1.90;;
16862;SDS011;52193;48.216;-1.698;2023-04-15T03:51:41;3.95;;;2.17;;
16862;SDS011;52193;48.216;-1.698;2023-04-15T03:54:08;5.68;;;2.20;;
16862;SDS011;52193;48.216;-1.698;2023-04-15T03:56:35;5.10;;;2.10;;
16862;SDS011;52193;48.216;-1.698;2023-04-15T03:59:02;3.80;;;2.22;;
16862;SDS011;52193;48.216;-1.698;2023-04-15T04:01:30;4.13;;;2.20;;
16862;SDS011;52193;48.216;-1.698;2023-04-15T04:03:57;4.57;;;2.20;;
16862;SDS011;52193;48.216;-1.698;2023-04-15T04:06:25;4.30;;;2.10;;
16862;SDS011;52193;48.216;-1.698;2023-04-15T04:08:52;3.72;;;1.80;;
16862;SDS011;52193;48.216;-1.698;2023-04-15T04:11:19;4.80;;;2.53;;
16862;SDS011;52193;48.216;-1.698;2023-04-15T04:13:46;6.28;;;2.53;;
16862;SDS011;52193;48.216;-1.698;2023-04-15T04:16:13;3.55;;;2.30;;
16862;SDS011;52193;48.216;-1.698;2023-04-15T04:18:41;5.63;;;2.20;;
16862;SDS011;52193;48.216;-1.698;2023-04-15T04:21:08;4.15;;;2.20;;
16862;SDS011;52193;48.216;-1.698;2023-04-15T04:23:35;6.32;;;2.35;;
16862;SDS011;52193;48.216;-1.698;2023-04-15T04:26:02;3.17;;;2.22;;
16862;SDS011;52193;48.216;-1.698;2023-04-15T04:28:29;4.78;;;2.40;;
16862;SDS011;52193;48.216;-1.698;2023-04-15T04:30:56;3.97;;;2.17;;
16862;SDS011;52193;48.216;-1.698;2023-04-15T04:33:23;3.63;;;1.98;;
16862;SDS011;52193;48.216;-1.698;2023-04-15T04:35:51;5.65;;;2.30;;
16862;SDS011;52193;48.216;-1.698;2023-04-15T04:38:18;5.50;;;2.53;;
16862;SDS011;52193;48.216;-1.698;2023-04-15T04:40:45;4.18;;;2.22;;
16862;SDS011;52193;48.216;-1.698;2023-04-15T04:43:12;4.28;;;2.53;;
16862;SDS011;52193;48.216;-1.698;2023-04-15T04:45:40;4.32;;;2.42;;
16862;SDS011;52193;48.216;-1.698;2023-04-15T04:48:07;5.20;;;2.15;;
16862;SDS011;52193;48.216;-1.698;2023-04-15T04:50:34;3.63;;;2.40;;
16862;SDS011;52193;48.216;-1.698;2023-04-15T04:53:03;6.15;;;2.25;;
16862;SDS011;52193;48.216;-1.698;2023-04-15T04:55:30;3.40;;;2.42;;
16862;SDS011;52193;48.216;-1.698;2023-04-15T04:57:57;4.75;;;2.40;;
16862;SDS011;52193;48.216;-1.698;2023-04-15T05:00:24;3.58;;;2.20;;
16862;SDS011;52193;48.216;-1.698;2023-04-15T05:02:50;5.32;;;2.50;;
16862;SDS011;52193;48.216;-1.698;2023-04-15T05:05:17;3.63;;;2.60;;
16862;SDS011;52193;48.216;-1.698;2023-04-15T05:07:44;6.00;;;2.60;;
16862;SDS011;52193;48.216;-1.698;2023-04-15T05:10:14;6.10;;;2.72;;
16862;SDS011;52193;48.216;-1.698;2023-04-15T05:12:42;6.18;;;3.20;;
16862;SDS011;52193;48.216;-1.698;2023-04-15T05:15:09;6.75;;;3.65;;
16862;SDS011;52193;48.216;-1.698;2023-04-15T05:17:36;4.28;;;2.72;;
16862;SDS011;52193;48.216;-1.698;2023-04-15T05:20:03;5.57;;;3.00;;
16862;SDS011;52193;48.216;-1.698;2023-04-15T05:22:31;7.63;;;2.90;;
16862;SDS011;52193;48.216;-1.698;2023-04-15T05:24:58;6.00;;;3.05;;
16862;SDS011;52193;48.216;-1.698;2023-04-15T05:27:26;7.35;;;3.22;;
16862;SDS011;52193;48.216;-1.698;2023-04-15T05:29:53;4.68;;;2.97;;
16862;SDS011;52193;48.216;-1.698;2023-04-15T05:32:20;7.30;;;3.22;;
16862;SDS011;52193;48.216;-1.698;2023-04-15T05:34:47;4.90;;;3.33;;
16862;SDS011;52193;48.216;-1.698;2023-04-15T05:37:14;4.60;;;3.28;;
16862;SDS011;52193;48.216;-1.698;2023-04-15T05:39:41;6.25;;;3.80;;
16862;SDS011;52193;48.216;-1.698;2023-04-15T05:42:08;7.07;;;3.60;;
16862;SDS011;52193;48.216;-1.698;2023-04-15T05:44:36;6.18;;;3.55;;
16862;SDS011;52193;48.216;-1.698;2023-04-15T05:47:03;3.78;;;3.10;;
16862;SDS011;52193;48.216;-1.698;2023-04-15T05:49:31;4.68;;;3.30;;
16862;SDS011;52193;48.216;-1.698;2023-04-15T05:51:58;4.35;;;3.10;;
16862;SDS011;52193;48.216;-1.698;2023-04-15T05:54:25;7.10;;;3.88;;
16862;SDS011;52193;48.216;-1.698;2023-04-15T05:56:52;6.20;;;3.65;;
16862;SDS011;52193;48.216;-1.698;2023-04-15T05:59:20;5.47;;;3.58;;
16862;SDS011;52193;48.216;-1.698;2023-04-15T06:01:48;4.85;;;3.58;;
16862;SDS011;52193;48.216;-1.698;2023-04-15T06:04:16;5.70;;;3.53;;
16862;SDS011;52193;48.216;-1.698;2023-04-15T06:06:43;8.32;;;3.80;;
16862;SDS011;52193;48.216;-1.698;2023-04-15T06:09:10;4.55;;;3.63;;
16862;SDS011;52193;48.216;-1.698;2023-04-15T06:11:37;5.53;;;3.75;;
16862;SDS011;52193;48.216;-1.698;2023-04-15T06:14:05;5.50;;;3.67;;
16862;SDS011;52193;48.216;-1.698;2023-04-15T06:16:32;6.93;;;4.20;;
16862;SDS011;52193;48.216;-1.698;2023-04-15T06:19:01;7.18;;;4.28;;
16862;SDS011;52193;48.216;-1.698;2023-04-15T06:21:29;8.35;;;4.15;;
16862;SDS011;52193;48.216;-1.698;2023-04-15T06:23:57;6.80;;;4.22;;
16862;SDS011;52193;48.216;-1.698;2023-04-15T06:26:24;5.65;;;3.88;;
16862;SDS011;52193;48.216;-1.698;2023-04-15T06:28:51;7.85;;;5.07;;
16862;SDS011;52193;48.216;-1.698;2023-04-15T06:31:18;7.00;;;4.93;;
16862;SDS011;52193;48.216;-1.698;2023-04-15T06:33:45;7.53;;;4.95;;
16862;SDS011;52193;48.216;-1.698;2023-04-15T06:36:13;6.38;;;5.03;;
16862;SDS011;52193;48.216;-1.698;2023-04-15T06:38:40;7.18;;;4.93;;
16862;SDS011;52193;48.216;-1.698;2023-04-15T06:41:07;9.90;;;5.85;;
16862;SDS011;52193;48.216;-1.698;2023-04-15T06:43:34;8.52;;;5.70;;
16862;SDS011;52193;48.216;-1.698;2023-04-15T06:46:01;8.95;;;5.65;;
16862;SDS011;52193;48.216;-1.698;2023-04-15T06:48:28;10.93;;;6.30;;
16862;SDS011;52193;48.216;-1.698;2023-04-15T06:50:55;6.30;;;5.65;;
16862;SDS011;52193;48.216;-1.698;2023-04-15T06:53:23;9.40;;;5.90;;
16862;SDS011;52193;48.216;-1.698;2023-04-15T06:55:51;7.93;;;5.82;;
16862;SDS011;52193;48.216;-1.698;2023-04-15T06:58:18;7.93;;;5.38;;
16862;SDS011;52193;48.216;-1.698;2023-04-15T07:00:45;9.75;;;6.22;;
16862;SDS011;52193;48.216;-1.698;2023-04-15T07:03:12;13.10;;;7.38;;
16862;SDS011;52193;48.216;-1.698;2023-04-15T07:05:39;7.65;;;6.80;;
16862;SDS011;52193;48.216;-1.698;2023-04-15T07:08:06;9.40;;;7.07;;
16862;SDS011;52193;48.216;-1.698;2023-04-15T07:10:34;14.77;;;8.00;;
16862;SDS011;52193;48.216;-1.698;2023-04-15T07:13:02;9.20;;;7.20;;
16862;SDS011;52193;48.216;-1.698;2023-04-15T07:15:29;8.85;;;7.38;;
16862;SDS011;52193;48.216;-1.698;2023-04-15T07:17:56;13.25;;;7.93;;
16862;SDS011;52193;48.216;-1.698;2023-04-15T07:20:23;9.25;;;6.78;;
16862;SDS011;52193;48.216;-1.698;2023-04-15T07:22:50;10.02;;;7.55;;
16862;SDS011;52193;48.216;-1.698;2023-04-15T07:25:17;12.10;;;7.63;;
16862;SDS011;52193;48.216;-1.698;2023-04-15T07:27:45;12.00;;;7.32;;
16862;SDS011;52193;48.216;-1.698;2023-04-15T07:30:12;11.68;;;7.25;;
16862;SDS011;52193;48.216;-1.698;2023-04-15T07:32:40;13.02;;;7.68;;
16862;SDS011;52193;48.216;-1.698;2023-04-15T07:35:08;10.27;;;7.47;;
16862;SDS011;52193;48.216;-1.698;2023-04-15T07:37:35;11.77;;;8.20;;
16862;SDS011;52193;48.216;-1.698;2023-04-15T07:40:02;12.30;;;8.30;;
16862;SDS011;52193;48.216;-1.698;2023-04-15T07:42:31;12.38;;;8.65;;
16862;SDS011;52193;48.216;-1.698;2023-04-15T07:44:59;8.05;;;7.25;;
16862;SDS011;52193;48.216;-1.698;2023-04-15T07:47:26;9.77;;;7.78;;
16862;SDS011;52193;48.216;-1.698;2023-04-15T07:49:53;11.73;;;7.55;;
16862;SDS011;52193;48.216;-1.698;2023-04-15T07:52:20;11.90;;;7.85;;
16862;SDS011;52193;48.216;-1.698;2023-04-15T07:54:47;8.32;;;7.47;;
16862;SDS011;52193;48.216;-1.698;2023-04-15T07:57:14;10.15;;;7.30;;
16862;SDS011;52193;48.216;-1.698;2023-04-15T07:59:42;8.88;;;7.55;;
16862;SDS011;52193;48.216;-1.698;2023-04-15T08:02:11;9.00;;;7.00;;
16862;SDS011;52193;48.216;-1.698;2023-04-15T08:04:38;12.68;;;7.80;;
16862;SDS011;52193;48.216;-1.698;2023-04-15T08:07:05;10.20;;;7.57;;
16862;SDS011;52193;48.216;-1.698;2023-04-15T08:09:32;7.88;;;7.07;;
16862;SDS011;52193;48.216;-1.698;2023-04-15T08:11:59;7.00;;;6.30;;
16862;SDS011;52193;48.216;-1.698;2023-04-15T08:14:26;6.40;;;5.80;;
16862;SDS011;52193;48.216;-1.698;2023-04-15T08:16:54;6.38;;;5.55;;
16862;SDS011;52193;48.216;-1.698;2023-04-15T08:19:22;4.90;;;4.43;;
16862;SDS011;52193;48.216;-1.698;2023-04-15T08:21:50;6.78;;;4.38;;
16862;SDS011;52193;48.216;-1.698;2023-04-15T08:24:17;3.95;;;3.53;;
16862;SDS011;52193;48.216;-1.698;2023-04-15T08:26:44;5.03;;;3.35;;
16862;SDS011;52193;48.216;-1.698;2023-04-15T08:29:11;3.13;;;2.80;;
16862;SDS011;52193;48.216;-1.698;2023-04-15T08:31:37;5.68;;;3.28;;
16862;SDS011;52193;48.216;-1.698;2023-04-15T08:34:05;3.83;;;2.70;;
16862;SDS011;52193;48.216;-1.698;2023-04-15T08:36:33;3.85;;;2.78;;
16862;SDS011;52193;48.216;-1.698;2023-04-15T08:39:00;2.88;;;2.55;;
16862;SDS011;52193;48.216;-1.698;2023-04-15T08:41:30;3.58;;;2.55;;
16862;SDS011;52193;48.216;-1.698;2023-04-15T08:44:05;3.97;;;2.67;;
16862;SDS011;52193;48.216;-1.698;2023-04-15T08:46:32;5.53;;;2.75;;
16862;SDS011;52193;48.216;-1.698;2023-04-15T08:48:59;3.90;;;2.63;;
16862;SDS011;52193;48.216;-1.698;2023-04-15T08:51:30;6.10;;;2.92;;
16862;SDS011;52193;48.216;-1.698;2023-04-15T08:53:59;4.53;;;2.70;;
16862;SDS011;52193;48.216;-1.698;2023-04-15T08:56:27;4.25;;;2.30;;
16862;SDS011;52193;48.216;-1.698;2023-04-15T08:58:56;3.53;;;2.15;;
16862;SDS011;52193;48.216;-1.698;2023-04-15T09:01:23;4.68;;;2.00;;
16862;SDS011;52193;48.216;-1.698;2023-04-15T09:03:51;2.17;;;1.67;;
16862;SDS011;52193;48.216;-1.698;2023-04-15T09:06:19;3.13;;;1.80;;
16862;SDS011;52193;48.216;-1.698;2023-04-15T09:08:46;3.38;;;1.90;;
16862;SDS011;52193;48.216;-1.698;2023-04-15T09:11:15;2.58;;;1.67;;
16862;SDS011;52193;48.216;-1.698;2023-04-15T09:13:43;2.55;;;1.88;;
16862;SDS011;52193;48.216;-1.698;2023-04-15T09:16:10;4.55;;;1.60;;
16862;SDS011;52193;48.216;-1.698;2023-04-15T09:18:38;2.38;;;1.30;;
16862;SDS011;52193;48.216;-1.698;2023-04-15T09:21:05;2.40;;;1.50;;
16862;SDS011;52193;48.216;-1.698;2023-04-15T09:23:35;4.00;;;1.98;;
16862;SDS011;52193;48.216;-1.698;2023-04-15T09:26:03;1.85;;;1.50;;
16862;SDS011;52193;48.216;-1.698;2023-04-15T09:28:32;2.70;;;1.50;;
16862;SDS011;52193;48.216;-1.698;2023-04-15T09:31:00;2.45;;;1.58;;
16862;SDS011;52193;48.216;-1.698;2023-04-15T09:33:28;2.45;;;1.50;;
16862;SDS011;52193;48.216;-1.698;2023-04-15T09:35:56;3.65;;;1.60;;
16862;SDS011;52193;48.216;-1.698;2023-04-15T09:38:24;2.58;;;1.55;;
16862;SDS011;52193;48.216;-1.698;2023-04-15T09:40:51;1.63;;;1.33;;
16862;SDS011;52193;48.216;-1.698;2023-04-15T09:43:19;2.03;;;1.40;;
16862;SDS011;52193;48.216;-1.698;2023-04-15T09:45:48;3.45;;;1.55;;
16862;SDS011;52193;48.216;-1.698;2023-04-15T09:48:17;1.52;;;1.30;;
16862;SDS011;52193;48.216;-1.698;2023-04-15T09:50:46;2.03;;;1.23;;
16862;SDS011;52193;48.216;-1.698;2023-04-15T09:53:18;2.60;;;1.77;;
16862;SDS011;52193;48.216;-1.698;2023-04-15T09:55:48;2.08;;;1.60;;
16862;SDS011;52193;48.216;-1.698;2023-04-15T09:58:18;2.25;;;1.10;;
16862;SDS011;52193;48.216;-1.698;2023-04-15T10:00:48;2.80;;;1.70;;
16862;SDS011;52193;48.216;-1.698;2023-04-15T10:03:17;3.00;;;1.55;;
16862;SDS011;52193;48.216;-1.698;2023-04-15T10:05:46;2.40;;;1.00;;
16862;SDS011;52193;48.216;-1.698;2023-04-15T10:08:15;3.30;;;1.70;;
16862;SDS011;52193;48.216;-1.698;2023-04-15T10:10:43;3.92;;;1.27;;
16862;SDS011;52193;48.216;-1.698;2023-04-15T10:13:12;1.92;;;1.30;;
16862;SDS011;52193;48.216;-1.698;2023-04-15T10:15:41;2.55;;;1.20;;
16862;SDS011;52193;48.216;-1.698;2023-04-15T10:18:13;2.72;;;1.30;;
16862;SDS011;52193;48.216;-1.698;2023-04-15T10:20:42;1.85;;;1.23;;
16862;SDS011;52193;48.216;-1.698;2023-04-15T10:23:10;1.33;;;1.08;;
16862;SDS011;52193;48.216;-1.698;2023-04-15T10:25:37;2.63;;;1.33;;
16862;SDS011;52193;48.216;-1.698;2023-04-15T10:28:05;3.55;;;1.33;;
16862;SDS011;52193;48.216;-1.698;2023-04-15T10:30:33;2.15;;;1.25;;
16862;SDS011;52193;48.216;-1.698;2023-04-15T10:33:00;1.90;;;1.27;;
16862;SDS011;52193;48.216;-1.698;2023-04-15T10:35:29;1.95;;;1.23;;
16862;SDS011;52193;48.216;-1.698;2023-04-15T10:37:57;6.85;;;1.40;;
16862;SDS011;52193;48.216;-1.698;2023-04-15T10:40:26;2.15;;;1.00;;
16862;SDS011;52193;48.216;-1.698;2023-04-15T10:42:56;2.05;;;0.93;;
16862;SDS011;52193;48.216;-1.698;2023-04-15T10:45:24;4.13;;;1.30;;
16862;SDS011;52193;48.216;-1.698;2023-04-15T10:47:54;2.75;;;1.10;;
16862;SDS011;52193;48.216;-1.698;2023-04-15T10:50:24;2.83;;;1.30;;
16862;SDS011;52193;48.216;-1.698;2023-04-15T10:52:53;2.30;;;1.23;;
16862;SDS011;52193;48.216;-1.698;2023-04-15T10:55:22;1.73;;;1.08;;
16862;SDS011;52193;48.216;-1.698;2023-04-15T10:57:50;3.38;;;1.40;;
16862;SDS011;52193;48.216;-1.698;2023-04-15T11:00:19;1.10;;;1.00;;
16862;SDS011;52193;48.216;-1.698;2023-04-15T11:02:51;1.77;;;1.30;;
16862;SDS011;52193;48.216;-1.698;2023-04-15T11:05:20;2.42;;;1.23;;
16862;SDS011;52193;48.216;-1.698;2023-04-15T11:07:52;2.20;;;1.13;;
16862;SDS011;52193;48.216;-1.698;2023-04-15T11:13:22;1.80;;;1.25;;
16862;SDS011;52193;48.216;-1.698;2023-04-15T11:15:56;2.75;;;1.30;;
16862;SDS011;52193;48.216;-1.698;2023-04-15T11:18:26;3.63;;;1.40;;
16862;SDS011;52193;48.216;-1.698;2023-04-15T11:20:56;1.77;;;1.20;;
16862;SDS011;52193;48.216;-1.698;2023-04-15T11:23:29;1.70;;;1.10;;
16862;SDS011;52193;48.216;-1.698;2023-04-15T11:25:58;1.60;;;1.00;;
16862;SDS011;52193;48.216;-1.698;2023-04-15T11:28:26;1.98;;;1.17;;
16862;SDS011;52193;48.216;-1.698;2023-04-15T11:30:55;3.13;;;1.13;;
16862;SDS011;52193;48.216;-1.698;2023-04-15T11:33:22;2.13;;;1.23;;
16862;SDS011;52193;48.216;-1.698;2023-04-15T11:35:51;2.72;;;1.10;;
16862;SDS011;52193;48.216;-1.698;2023-04-15T11:38:19;1.20;;;0.90;;
16862;SDS011;52193;48.216;-1.698;2023-04-15T11:40:48;3.38;;;1.33;;
16862;SDS011;52193;48.216;-1.698;2023-04-15T11:43:17;1.23;;;1.02;;
16862;SDS011;52193;48.216;-1.698;2023-04-15T11:45:52;2.15;;;1.00;;
16862;SDS011;52193;48.216;-1.698;2023-04-15T11:48:21;1.65;;;1.08;;
16862;SDS011;52193;48.216;-1.698;2023-04-15T11:50:53;2.00;;;0.90;;
16862;SDS011;52193;48.216;-1.698;2023-04-15T11:53:21;1.10;;;1.00;;
16862;SDS011;52193;48.216;-1.698;2023-04-15T11:55:51;2.40;;;1.40;;
16862;SDS011;52193;48.216;-1.698;2023-04-15T11:58:19;2.22;;;1.10;;
16862;SDS011;52193;48.216;-1.698;2023-04-15T12:00:48;1.58;;;1.17;;
16862;SDS011;52193;48.216;-1.698;2023-04-15T12:03:18;3.25;;;1.30;;
16862;SDS011;52193;48.216;-1.698;2023-04-15T12:06:03;1.80;;;1.35;;
16862;SDS011;52193;48.216;-1.698;2023-04-15T12:08:49;1.88;;;1.17;;
16862;SDS011;52193;48.216;-1.698;2023-04-15T12:11:20;1.35;;;1.17;;
16862;SDS011;52193;48.216;-1.698;2023-04-15T12:13:54;1.70;;;1.20;;
16862;SDS011;52193;48.216;-1.698;2023-04-15T12:16:22;2.10;;;1.33;;
16862;SDS011;52193;48.216;-1.698;2023-04-15T12:18:50;1.98;;;1.15;;
16862;SDS011;52193;48.216;-1.698;2023-04-15T12:21:20;1.25;;;1.15;;
16862;SDS011;52193;48.216;-1.698;2023-04-15T12:23:47;3.20;;;1.38;;
16862;SDS011;52193;48.216;-1.698;2023-04-15T12:26:14;3.28;;;1.30;;
16862;SDS011;52193;48.216;-1.698;2023-04-15T12:28:43;1.63;;;1.17;;
16862;SDS011;52193;48.216;-1.698;2023-04-15T12:31:10;1.42;;;0.98;;
16862;SDS011;52193;48.216;-1.698;2023-04-15T12:33:38;2.95;;;1.27;;
16862;SDS011;52193;48.216;-1.698;2023-04-15T12:36:05;1.50;;;0.88;;
16862;SDS011;52193;48.216;-1.698;2023-04-15T12:38:32;1.30;;;1.00;;
16862;SDS011;52193;48.216;-1.698;2023-04-15T12:40:59;1.92;;;1.10;;
16862;SDS011;52193;48.216;-1.698;2023-04-15T12:43:26;1.77;;;1.00;;
16862;SDS011;52193;48.216;-1.698;2023-04-15T12:45:54;1.95;;;1.38;;
16862;SDS011;52193;48.216;-1.698;2023-04-15T12:48:21;1.70;;;1.13;;
16862;SDS011;52193;48.216;-1.698;2023-04-15T12:50:48;1.85;;;1.20;;
16862;SDS011;52193;48.216;-1.698;2023-04-15T12:53:15;4.90;;;1.65;;
16862;SDS011;52193;48.216;-1.698;2023-04-15T12:55:42;3.17;;;1.27;;
16862;SDS011;52193;48.216;-1.698;2023-04-15T12:58:09;1.45;;;1.20;;
16862;SDS011;52193;48.216;-1.698;2023-04-15T13:00:36;2.70;;;1.55;;
16862;SDS011;52193;48.216;-1.698;2023-04-15T13:03:05;2.50;;;1.55;;
16862;SDS011;52193;48.216;-1.698;2023-04-15T13:05:32;1.42;;;1.00;;
16862;SDS011;52193;48.216;-1.698;2023-04-15T13:08:01;2.13;;;1.05;;
16862;SDS011;52193;48.216;-1.698;2023-04-15T13:10:28;2.55;;;1.50;;
16862;SDS011;52193;48.216;-1.698;2023-04-15T13:12:55;1.92;;;1.38;;
16862;SDS011;52193;48.216;-1.698;2023-04-15T13:15:22;2.03;;;1.10;;
16862;SDS011;52193;48.216;-1.698;2023-04-15T13:17:50;2.75;;;1.00;;
16862;SDS011;52193;48.216;-1.698;2023-04-15T13:20:18;2.38;;;0.98;;
16862;SDS011;52193;48.216;-1.698;2023-04-15T13:22:45;1.58;;;0.93;;
16862;SDS011;52193;48.216;-1.698;2023-04-15T13:25:12;2.65;;;1.30;;
16862;SDS011;52193;48.216;-1.698;2023-04-15T13:27:39;1.30;;;1.00;;
16862;SDS011;52193;48.216;-1.698;2023-04-15T13:30:07;1.20;;;1.10;;
16862;SDS011;52193;48.216;-1.698;2023-04-15T13:32:34;0.93;;;0.80;;
16862;SDS011;52193;48.216;-1.698;2023-04-15T13:35:01;1.55;;;0.80;;
16862;SDS011;52193;48.216;-1.698;2023-04-15T13:37:30;2.50;;;0.90;;
16862;SDS011;52193;48.216;-1.698;2023-04-15T13:39:57;1.67;;;0.70;;
16862;SDS011;52193;48.216;-1.698;2023-04-15T13:42:24;1.77;;;0.90;;
16862;SDS011;52193;48.216;-1.698;2023-04-15T13:44:51;1.83;;;0.88;;
16862;SDS011;52193;48.216;-1.698;2023-04-15T13:47:18;2.05;;;1.10;;
16862;SDS011;52193;48.216;-1.698;2023-04-15T13:49:45;2.42;;;1.00;;
16862;SDS011;52193;48.216;-1.698;2023-04-15T13:52:12;2.78;;;1.40;;
16862;SDS011;52193;48.216;-1.698;2023-04-15T13:54:41;1.00;;;0.63;;
16862;SDS011;52193;48.216;-1.698;2023-04-15T13:57:08;1.35;;;1.10;;
16862;SDS011;52193;48.216;-1.698;2023-04-15T13:59:35;1.38;;;0.82;;
16862;SDS011;52193;48.216;-1.698;2023-04-15T14:02:02;2.40;;;1.10;;
16862;SDS011;52193;48.216;-1.698;2023-04-15T14:04:29;1.13;;;0.90;;
16862;SDS011;52193;48.216;-1.698;2023-04-15T14:06:56;1.17;;;0.90;;
16862;SDS011;52193;48.216;-1.698;2023-04-15T14:09:23;1.45;;;0.95;;
16862;SDS011;52193;48.216;-1.698;2023-04-15T14:11:51;1.25;;;0.90;;
16862;SDS011;52193;48.216;-1.698;2023-04-15T14:14:18;1.50;;;1.02;;
16862;SDS011;52193;48.216;-1.698;2023-04-15T14:16:45;1.85;;;0.80;;
16862;SDS011;52193;48.216;-1.698;2023-04-15T14:19:13;1.08;;;0.68;;
16862;SDS011;52193;48.216;-1.698;2023-04-15T14:21:40;2.30;;;1.00;;
16862;SDS011;52193;48.216;-1.698;2023-04-15T14:24:07;1.17;;;0.70;;
16862;SDS011;52193;48.216;-1.698;2023-04-15T14:26:34;1.63;;;0.90;;
16862;SDS011;52193;48.216;-1.698;2023-04-15T14:29:02;2.92;;;1.08;;
16862;SDS011;52193;48.216;-1.698;2023-04-15T14:31:29;2.88;;;0.70;;
16862;SDS011;52193;48.216;-1.698;2023-04-15T14:33:56;2.60;;;0.90;;
16862;SDS011;52193;48.216;-1.698;2023-04-15T14:36:23;1.15;;;0.70;;
16862;SDS011;52193;48.216;-1.698;2023-04-15T14:38:50;1.40;;;0.68;;